createdAt,value
2019-02-23T00:00:49.566Z,110.72
2019-02-23T00:03:21.351Z,111.03
2019-02-23T00:05:52.905Z,102.97
2019-02-23T00:08:24.714Z,99.77
2019-02-23T00:10:56.381Z,118.45
2019-02-23T00:13:28.428Z,79.82
2019-02-23T00:15:59.784Z,113.05
2019-02-23T00:18:30.873Z,88.37
2019-02-23T00:21:02.569Z,123.22
2019-02-23T00:23:34.008Z,112.90
2019-02-23T00:26:05.537Z,129.63
2019-02-23T00:28:36.792Z,83.97
2019-02-23T00:31:08.217Z,116.85
2019-02-23T00:33:39.883Z,62.45
2019-02-23T00:36:11.295Z,123.25
2019-02-23T00:38:42.772Z,133.45
2019-02-23T00:41:14.034Z,143.00
2019-02-23T00:43:45.759Z,110.60
2019-02-23T00:46:17.320Z,114.08
2019-02-23T00:48:48.781Z,111.83
2019-02-23T00:51:20.378Z,124.12
2019-02-23T00:53:51.754Z,110.00
2019-02-23T00:56:23.127Z,95.80
2019-02-23T00:58:54.572Z,94.10
2019-02-23T01:01:26.021Z,82.00
2019-02-23T01:03:57.986Z,113.10
2019-02-23T01:06:29.744Z,108.92
2019-02-23T01:09:00.972Z,70.75
2019-02-23T01:11:33.851Z,49.58
2019-02-23T01:14:05.342Z,31.23
2019-02-23T01:16:36.887Z,1.65
2019-02-23T01:19:08.145Z,1.98
2019-02-23T01:21:39.708Z,1.17
2019-02-23T01:24:11.365Z,61.88
2019-02-23T01:26:43.017Z,66.10
2019-02-23T01:29:14.625Z,95.25
2019-02-23T01:31:46.128Z,83.85
2019-02-23T01:34:17.522Z,86.90
2019-02-23T01:36:49.061Z,98.12
2019-02-23T01:39:20.655Z,75.75
2019-02-23T01:41:52.156Z,72.58
2019-02-23T01:44:23.669Z,73.62
2019-02-23T01:46:55.319Z,46.85
2019-02-23T01:49:26.957Z,68.83
2019-02-23T01:51:58.256Z,16.23
2019-02-23T01:54:29.800Z,41.18
2019-02-23T01:57:01.230Z,174.02
2019-02-23T01:59:32.459Z,169.37
2019-02-23T02:02:04.043Z,766.02
2019-02-23T02:04:35.437Z,682.70
2019-02-23T02:07:07.011Z,682.15
2019-02-23T02:09:38.272Z,528.48
2019-02-23T02:12:11.224Z,689.83
2019-02-23T02:14:42.567Z,419.35
2019-02-23T02:17:14.053Z,227.03
2019-02-23T02:19:45.331Z,232.65
2019-02-23T02:22:16.629Z,338.68
2019-02-23T02:24:48.171Z,177.35
2019-02-23T02:27:19.629Z,198.45
2019-02-23T02:29:51.077Z,178.27
2019-02-23T02:32:22.277Z,141.07
2019-02-23T02:34:53.764Z,81.97
2019-02-23T02:37:25.274Z,88.72
2019-02-23T02:39:56.789Z,189.90
2019-02-23T02:42:28.232Z,172.10
2019-02-23T02:44:59.731Z,252.53
2019-02-23T02:47:31.242Z,131.50
2019-02-23T02:50:02.702Z,90.45
2019-02-23T02:52:34.278Z,315.90
2019-02-23T02:55:06.412Z,194.75
2019-02-23T02:57:37.946Z,233.97
2019-02-23T03:00:11.858Z,145.50
2019-02-23T03:02:44.390Z,142.30
2019-02-23T03:05:15.382Z,144.82
2019-02-23T03:07:46.695Z,51.23
2019-02-23T03:10:17.906Z,49.08
2019-02-23T03:12:49.319Z,102.58
2019-02-23T03:15:20.390Z,1.07
2019-02-23T03:17:51.891Z,18.07
2019-02-23T03:20:23.077Z,0.87
2019-02-23T03:22:54.624Z,41.05
2019-02-23T03:25:25.914Z,5.50
2019-02-23T03:27:57.187Z,53.23
2019-02-23T03:30:28.505Z,39.63
2019-02-23T03:32:59.726Z,1.23
2019-02-23T03:35:30.620Z,10.53
2019-02-23T03:38:02.127Z,0.57
2019-02-23T03:40:34.138Z,76.35
2019-02-23T03:43:05.581Z,120.92
2019-02-23T03:45:37.977Z,135.30
2019-02-23T03:48:09.463Z,96.30
2019-02-23T03:53:12.437Z,74.40
2019-02-23T03:55:44.804Z,9.93
2019-02-23T03:58:16.232Z,13.50
2019-02-23T04:00:47.609Z,37.60
2019-02-23T04:03:19.038Z,9.53
2019-02-23T04:05:50.554Z,42.98
2019-02-23T04:08:21.759Z,100.05
2019-02-23T04:10:52.977Z,159.67
2019-02-23T04:13:24.501Z,159.32
2019-02-23T04:15:56.079Z,132.67
2019-02-23T04:18:27.803Z,163.57
2019-02-23T04:21:02.079Z,145.50
2019-02-23T04:23:32.499Z,151.10
2019-02-23T04:26:04.016Z,151.40
2019-02-23T04:28:35.379Z,192.15
2019-02-23T04:31:06.769Z,166.37
2019-02-23T04:33:38.181Z,142.18
2019-02-23T04:36:09.413Z,139.43
2019-02-23T04:38:40.826Z,140.88
2019-02-23T04:41:12.837Z,107.70
2019-02-23T04:43:44.336Z,83.05
2019-02-23T04:46:15.845Z,171.87
2019-02-23T04:48:47.343Z,159.10
2019-02-23T04:51:18.640Z,181.57
2019-02-23T04:53:50.157Z,152.85
2019-02-23T04:56:21.346Z,95.42
2019-02-23T04:58:52.654Z,196.25
2019-02-23T05:01:23.850Z,155.70
2019-02-23T05:03:55.298Z,98.42
2019-02-23T05:08:56.205Z,171.10
2019-02-23T05:11:27.960Z,168.70
2019-02-23T05:13:59.408Z,1.90
2019-02-23T05:16:30.922Z,6.80
2019-02-23T05:19:02.423Z,110.63
2019-02-23T05:21:33.527Z,1.97
2019-02-23T05:24:04.730Z,74.43
2019-02-23T05:26:36.011Z,114.95
2019-02-23T05:29:07.253Z,123.02
2019-02-23T05:31:38.490Z,166.80
2019-02-23T05:34:09.702Z,183.90
2019-02-23T05:36:41.305Z,174.87
2019-02-23T05:39:12.831Z,176.07
2019-02-23T05:41:44.162Z,192.60
2019-02-23T05:44:15.552Z,144.72
2019-02-23T05:46:46.852Z,90.07
2019-02-23T05:49:18.107Z,127.17
2019-02-23T05:51:49.522Z,119.93
2019-02-23T05:54:20.952Z,88.52
2019-02-23T05:56:52.419Z,104.75
2019-02-23T05:59:24.028Z,148.72
2019-02-23T06:01:55.625Z,97.02
2019-02-23T06:04:27.042Z,121.20
2019-02-23T06:06:58.276Z,158.00
2019-02-23T06:09:29.786Z,125.47
2019-02-23T06:12:01.337Z,160.82
2019-02-23T06:14:32.695Z,111.12
2019-02-23T06:17:04.412Z,118.55
2019-02-23T06:19:36.152Z,95.97
2019-02-23T06:22:07.614Z,34.85
2019-02-23T06:24:39.541Z,30.75
2019-02-23T06:27:11.203Z,2.90
2019-02-23T06:29:42.971Z,4.08
2019-02-23T06:32:14.336Z,18.57
2019-02-23T06:34:45.235Z,7.57
2019-02-23T06:37:16.658Z,4.25
2019-02-23T06:39:49.054Z,9.88
2019-02-23T06:44:50.023Z,0.60
2019-02-23T06:47:20.949Z,2.42
2019-02-23T06:49:52.742Z,1.82
2019-02-23T06:52:23.780Z,2.83
2019-02-23T06:54:55.427Z,5.83
2019-02-23T06:57:26.842Z,3.07
2019-02-23T06:59:58.081Z,2.42
2019-02-23T07:02:29.521Z,1.87
2019-02-23T07:05:00.793Z,1.40
2019-02-23T07:07:32.196Z,1.00
2019-02-23T07:10:05.140Z,90.47
2019-02-23T07:12:36.792Z,87.85
2019-02-23T07:15:09.423Z,94.45
2019-02-23T07:17:40.677Z,2.10
2019-02-23T07:20:12.307Z,1.52
2019-02-23T07:22:43.623Z,65.42
2019-02-23T07:25:15.130Z,11.78
2019-02-23T07:27:46.358Z,35.00
2019-02-23T07:30:17.654Z,37.48
2019-02-23T07:32:48.867Z,68.60
2019-02-23T07:35:20.270Z,50.75
2019-02-23T07:37:51.687Z,37.70
2019-02-23T07:42:53.034Z,98.00
2019-02-23T07:45:24.443Z,98.35
2019-02-23T07:47:56.709Z,73.40
2019-02-23T07:50:28.316Z,82.90
2019-02-23T07:52:59.943Z,86.65
2019-02-23T07:55:31.575Z,89.28
2019-02-23T07:58:03.050Z,94.10
2019-02-23T08:00:34.635Z,39.53
2019-02-23T08:03:06.079Z,110.20
2019-02-23T08:05:37.523Z,29.95
2019-02-23T08:08:09.077Z,61.98
2019-02-23T08:10:40.701Z,44.83
2019-02-23T08:13:12.151Z,71.17
2019-02-23T08:15:43.602Z,82.95
2019-02-23T08:18:15.102Z,73.10
2019-02-23T08:20:46.714Z,3.00
2019-02-23T08:23:18.080Z,75.28
2019-02-23T08:25:49.849Z,74.42
2019-02-23T08:28:21.581Z,76.85
2019-02-23T08:30:52.928Z,85.00
2019-02-23T08:33:24.181Z,56.20
2019-02-23T08:35:55.822Z,49.48
2019-02-23T08:38:27.332Z,54.40
2019-02-23T08:40:58.928Z,60.15
2019-02-23T08:43:30.570Z,49.95
2019-02-23T08:46:02.104Z,13.20
2019-02-23T08:48:33.696Z,26.30
2019-02-23T08:51:05.329Z,64.15
2019-02-23T08:53:36.792Z,3.35
2019-02-23T08:56:08.480Z,48.52
2019-02-23T08:58:39.702Z,82.22
2019-02-23T09:01:11.023Z,71.62
2019-02-23T09:03:42.549Z,57.78
2019-02-23T09:06:14.133Z,52.73
2019-02-23T09:08:45.703Z,14.20
2019-02-23T09:11:17.320Z,20.50
2019-02-23T09:13:48.895Z,55.23
2019-02-23T09:16:20.480Z,1.40
2019-02-23T09:18:52.052Z,11.90
2019-02-23T09:21:23.578Z,14.73
2019-02-23T09:23:54.875Z,24.05
2019-02-23T09:26:26.410Z,32.60
2019-02-23T09:28:59.235Z,15.68
2019-02-23T09:31:30.751Z,12.03
2019-02-23T09:34:02.191Z,1.25
2019-02-23T09:36:33.503Z,0.90
2019-02-23T09:39:05.160Z,2.80
2019-02-23T09:41:36.961Z,7.53
2019-02-23T09:44:08.271Z,12.13
2019-02-23T09:46:39.857Z,25.75
2019-02-23T09:49:11.298Z,32.53
2019-02-23T09:51:42.978Z,23.05
2019-02-23T09:54:14.186Z,69.12
2019-02-23T09:59:15.389Z,42.25
2019-02-23T10:01:46.674Z,84.70
2019-02-23T10:04:17.945Z,41.18
2019-02-23T10:06:49.470Z,41.15
2019-02-23T10:09:21.400Z,32.20
2019-02-23T10:11:53.135Z,11.68
2019-02-23T10:14:25.041Z,31.80
2019-02-23T10:16:56.372Z,27.17
2019-02-23T10:19:28.169Z,28.17
2019-02-23T10:21:59.402Z,17.42
2019-02-23T10:24:30.631Z,37.00
2019-02-23T10:27:02.272Z,4.87
2019-02-23T10:29:33.825Z,12.53
2019-02-23T10:32:05.283Z,1.32
2019-02-23T10:34:37.062Z,1.05
2019-02-23T10:37:08.557Z,1.30
2019-02-23T10:39:40.161Z,0.80
2019-02-23T10:42:11.500Z,0.88
2019-02-23T10:44:43.580Z,2.13
2019-02-23T10:49:45.475Z,104.10
2019-02-23T10:52:17.169Z,0.93
2019-02-23T10:54:48.907Z,0.62
2019-02-23T10:57:20.422Z,2.00
2019-02-23T10:59:51.765Z,11.55
2019-02-23T11:02:23.451Z,1.72
2019-02-23T11:04:54.906Z,1.05
2019-02-23T11:07:26.578Z,1.35
2019-02-23T11:09:58.137Z,0.95
2019-02-23T11:12:29.349Z,1.22
2019-02-23T11:15:00.931Z,1.22
2019-02-23T11:17:32.577Z,57.98
2019-02-23T11:20:03.766Z,58.50
2019-02-23T11:22:35.249Z,73.28
2019-02-23T11:25:07.455Z,79.85
2019-02-23T11:27:39.178Z,94.28
2019-02-23T11:30:11.925Z,18.60
2019-02-23T11:32:43.316Z,84.87
2019-02-23T11:35:17.123Z,76.87
2019-02-23T11:37:48.294Z,57.48
2019-02-23T11:40:19.702Z,81.08
2019-02-23T11:42:51.048Z,68.02
2019-02-23T11:45:22.454Z,70.40
2019-02-23T11:47:54.260Z,62.15
2019-02-23T11:50:25.620Z,1.95
2019-02-23T11:52:57.340Z,1.70
2019-02-23T11:55:28.698Z,2.10
2019-02-23T11:58:00.058Z,1.72
2019-02-23T12:00:31.627Z,1.80
2019-02-23T12:03:03.260Z,1.17
2019-02-23T12:05:34.954Z,1.30
2019-02-23T12:08:06.390Z,1.30
2019-02-23T12:10:37.960Z,1.17
2019-02-23T12:13:09.546Z,1.55
2019-02-23T12:15:41.192Z,1.50
2019-02-23T12:18:12.489Z,2.00
2019-02-23T12:20:44.170Z,1.17
2019-02-23T12:23:15.786Z,1.10
2019-02-23T12:25:47.040Z,2.47
2019-02-23T12:28:18.446Z,0.90
2019-02-23T12:30:50.231Z,1.10
2019-02-23T12:33:21.418Z,1.07
2019-02-23T12:35:52.928Z,1.25
2019-02-23T12:38:24.225Z,0.95
2019-02-23T12:40:55.940Z,1.30
2019-02-23T12:43:27.538Z,1.22
2019-02-23T12:45:59.131Z,1.00
2019-02-23T12:48:30.840Z,1.15
2019-02-23T12:51:02.360Z,1.22
2019-02-23T12:53:34.301Z,1.57
2019-02-23T12:56:05.701Z,1.00
2019-02-23T12:58:37.295Z,0.93
2019-02-23T13:01:08.563Z,1.20
2019-02-23T13:03:40.244Z,1.07
2019-02-23T13:06:11.562Z,1.65
2019-02-23T13:09:14.015Z,1.32
2019-02-23T13:11:48.877Z,1.87
2019-02-23T13:14:34.373Z,1.20
2019-02-23T13:17:38.610Z,1.52
2019-02-23T13:20:23.699Z,0.90
2019-02-23T13:23:18.473Z,1.02
2019-02-23T13:26:16.179Z,1.15
2019-02-23T13:29:28.151Z,1.20
2019-02-23T13:32:35.851Z,1.45
2019-02-23T13:35:37.424Z,1.17
2019-02-23T13:38:39.851Z,1.22
2019-02-23T13:41:43.412Z,1.30
2019-02-23T13:44:54.681Z,1.47
2019-02-23T13:48:10.630Z,1.00
2019-02-23T13:51:13.817Z,1.15
2019-02-23T13:54:38.541Z,1.10
2019-02-23T13:57:29.392Z,1.52
2019-02-23T14:00:22.605Z,0.85
2019-02-23T14:03:30.839Z,1.25
2019-02-23T14:06:45.986Z,1.40
2019-02-23T14:10:00.745Z,1.05
2019-02-23T14:13:09.911Z,0.80
2019-02-23T14:16:05.527Z,1.42
2019-02-23T14:19:23.813Z,1.02
2019-02-23T14:22:24.413Z,1.35
2019-02-23T14:25:21.276Z,1.62
2019-02-23T14:28:33.224Z,0.90
2019-02-23T14:31:50.206Z,1.35
2019-02-23T14:34:52.269Z,2.37
2019-02-23T14:37:37.582Z,1.07
2019-02-23T14:41:00.282Z,1.12
2019-02-23T14:43:58.619Z,1.05
2019-02-23T14:47:05.792Z,1.02
2019-02-23T14:50:13.317Z,1.67
2019-02-23T14:53:43.444Z,1.00
2019-02-23T14:56:53.519Z,1.02
2019-02-23T14:59:58.025Z,1.60
2019-02-23T15:03:20.555Z,1.00
2019-02-23T15:06:16.338Z,1.52
2019-02-23T15:09:37.103Z,0.85
2019-02-23T15:12:40.348Z,0.85
2019-02-23T15:15:56.139Z,0.82
2019-02-23T15:57:00.663Z,0.97
2019-02-23T15:59:32.107Z,0.90
2019-02-23T16:44:31.590Z,0.75
2019-02-23T16:47:02.815Z,0.42
2019-02-23T17:49:31.706Z,0.75
2019-02-23T17:52:02.697Z,0.90
2019-02-23T17:54:33.939Z,1.30
2019-02-23T17:57:05.135Z,1.02
2019-02-23T17:59:36.387Z,0.37
